sensor_id;sensor_type;location;lat;lon;timestamp;pressure;altitude;pressure_sealevel;temperature;humidity
70229;BME280;57617;51.988;5.854;2023-03-04T00:00:23;102167.00;;;9.09;56.00
70229;BME280;57617;51.988;5.854;2023-03-04T00:02:48;102167.19;;;9.08;56.12
70229;BME280;57617;51.988;5.854;2023-03-04T00:05:14;102168.41;;;9.05;56.42
70229;BME280;57617;51.988;5.854;2023-03-04T00:07:39;102174.63;;;8.99;56.43
70229;BME280;57617;51.988;5.854;2023-03-04T00:10:05;102174.63;;;8.99;56.22
70229;BME280;57617;51.988;5.854;2023-03-04T00:12:30;102167.75;;;9.03;55.92
70229;BME280;57617;51.988;5.854;2023-03-04T00:14:56;102168.59;;;9.04;56.05
70229;BME280;57617;51.988;5.854;2023-03-04T00:17:21;102162.81;;;9.07;56.53
70229;BME280;57617;51.988;5.854;2023-03-04T00:19:47;102168.66;;;9.10;56.38
70229;BME280;57617;51.988;5.854;2023-03-04T00:22:12;102164.72;;;9.13;55.74
70229;BME280;57617;51.988;5.854;2023-03-04T00:24:37;102168.25;;;9.13;55.73
70229;BME280;57617;51.988;5.854;2023-03-04T00:27:03;102169.09;;;9.14;56.50
70229;BME280;57617;51.988;5.854;2023-03-04T00:29:28;102170.13;;;9.13;56.39
70229;BME280;57617;51.988;5.854;2023-03-04T00:31:53;102170.97;;;9.13;56.51
70229;BME280;57617;51.988;5.854;2023-03-04T00:34:19;102161.16;;;9.12;56.11
70229;BME280;57617;51.988;5.854;2023-03-04T00:36:45;102170.75;;;9.15;56.20
70229;BME280;57617;51.988;5.854;2023-03-04T00:39:11;102167.81;;;9.10;56.74
70229;BME280;57617;51.988;5.854;2023-03-04T00:41:37;102164.28;;;9.09;56.76
70229;BME280;57617;51.988;5.854;2023-03-04T00:44:03;102168.47;;;9.12;56.44
70229;BME280;57617;51.988;5.854;2023-03-04T00:46:28;102162.56;;;9.08;56.27
70229;BME280;57617;51.988;5.854;2023-03-04T00:48:53;102164.66;;;9.06;56.16
70229;BME280;57617;51.988;5.854;2023-03-04T00:51:19;102161.31;;;9.04;56.10
70229;BME280;57617;51.988;5.854;2023-03-04T00:53:44;102162.16;;;9.05;56.38
70229;BME280;57617;51.988;5.854;2023-03-04T00:56:09;102163.44;;;9.09;56.85
70229;BME280;57617;51.988;5.854;2023-03-04T00:58:34;102166.13;;;9.09;56.39
70229;BME280;57617;51.988;5.854;2023-03-04T01:01:00;102163.44;;;9.09;56.21
70229;BME280;57617;51.988;5.854;2023-03-04T01:03:25;102160.47;;;9.04;56.98
70229;BME280;57617;51.988;5.854;2023-03-04T01:05:51;102161.72;;;9.01;56.77
70229;BME280;57617;51.988;5.854;2023-03-04T01:08:16;102163.78;;;8.99;57.04
70229;BME280;57617;51.988;5.854;2023-03-04T01:10:41;102152.94;;;8.99;57.06
70229;BME280;57617;51.988;5.854;2023-03-04T01:13:07;102165.66;;;8.99;57.16
70229;BME280;57617;51.988;5.854;2023-03-04T01:15:32;102156.28;;;9.01;56.56
70229;BME280;57617;51.988;5.854;2023-03-04T01:17:57;102165.03;;;9.03;57.29
70229;BME280;57617;51.988;5.854;2023-03-04T01:20:23;102158.41;;;9.06;56.52
70229;BME280;57617;51.988;5.854;2023-03-04T01:22:48;102155.50;;;9.07;56.81
70229;BME280;57617;51.988;5.854;2023-03-04T01:25:14;102158.81;;;9.03;56.68
70229;BME280;57617;51.988;5.854;2023-03-04T01:27:39;102152.53;;;9.02;57.12
70229;BME280;57617;51.988;5.854;2023-03-04T01:30:05;102152.34;;;9.04;57.16
70229;BME280;57617;51.988;5.854;2023-03-04T01:32:31;102153.38;;;9.03;57.22
70229;BME280;57617;51.988;5.854;2023-03-04T01:34:56;102137.31;;;9.01;56.69
70229;BME280;57617;51.988;5.854;2023-03-04T01:37:21;102152.53;;;9.02;57.18
70229;BME280;57617;51.988;5.854;2023-03-04T01:39:47;102145.44;;;9.01;57.31
70229;BME280;57617;51.988;5.854;2023-03-04T01:42:22;102140.88;;;9.02;57.34
70229;BME280;57617;51.988;5.854;2023-03-04T01:44:50;102143.34;;;8.97;57.25
70229;BME280;57617;51.988;5.854;2023-03-04T01:47:16;102130.38;;;8.92;57.26
70229;BME280;57617;51.988;5.854;2023-03-04T01:49:42;102132.88;;;8.94;57.68
70229;BME280;57617;51.988;5.854;2023-03-04T01:52:12;102130.38;;;8.92;57.35
70229;BME280;57617;51.988;5.854;2023-03-04T01:54:38;102128.94;;;8.96;57.50
70229;BME280;57617;51.988;5.854;2023-03-04T01:57:18;102131.22;;;8.93;57.66
70229;BME280;57617;51.988;5.854;2023-03-04T01:59:44;102131.66;;;8.96;57.68
70229;BME280;57617;51.988;5.854;2023-03-04T02:02:11;102120.97;;;8.88;57.70
70229;BME280;57617;51.988;5.854;2023-03-04T02:04:38;102125.41;;;8.96;57.51
70229;BME280;57617;51.988;5.854;2023-03-04T02:07:04;102123.16;;;8.99;57.12
70229;BME280;57617;51.988;5.854;2023-03-04T02:09:31;102112.94;;;9.01;57.87
70229;BME280;57617;51.988;5.854;2023-03-04T02:11:57;102116.69;;;9.00;58.06
70229;BME280;57617;51.988;5.854;2023-03-04T02:14:23;102109.59;;;8.99;57.25
70229;BME280;57617;51.988;5.854;2023-03-04T02:16:49;102105.84;;;9.00;57.71
70229;BME280;57617;51.988;5.854;2023-03-04T02:21:39;102101.84;;;8.96;56.83
70229;BME280;57617;51.988;5.854;2023-03-04T02:24:16;102107.22;;;8.90;57.72
70229;BME280;57617;51.988;5.854;2023-03-04T02:26:44;102103.25;;;8.86;57.49
70229;BME280;57617;51.988;5.854;2023-03-04T02:29:12;102103.69;;;8.89;57.83
70229;BME280;57617;51.988;5.854;2023-03-04T02:31:43;102102.47;;;8.92;57.17
70229;BME280;57617;51.988;5.854;2023-03-04T02:34:13;102091.56;;;8.85;57.71
70229;BME280;57617;51.988;5.854;2023-03-04T02:36:39;102092.91;;;8.96;57.03
70229;BME280;57617;51.988;5.854;2023-03-04T02:41:50;102096.25;;;8.98;57.04
70229;BME280;57617;51.988;5.854;2023-03-04T02:44:19;102096.63;;;8.95;56.76
70229;BME280;57617;51.988;5.854;2023-03-04T02:46:45;102089.72;;;8.92;56.91
70229;BME280;57617;51.988;5.854;2023-03-04T02:49:10;102085.59;;;8.96;57.26
70229;BME280;57617;51.988;5.854;2023-03-04T02:51:36;102083.31;;;9.00;56.92
70229;BME280;57617;51.988;5.854;2023-03-04T02:54:02;102082.06;;;9.02;57.39
70229;BME280;57617;51.988;5.854;2023-03-04T02:56:27;102089.16;;;9.03;57.46
70229;BME280;57617;51.988;5.854;2023-03-04T02:58:53;102082.94;;;9.03;57.42
70229;BME280;57617;51.988;5.854;2023-03-04T03:01:18;102075.38;;;8.98;57.01
70229;BME280;57617;51.988;5.854;2023-03-04T03:03:43;102071.22;;;8.96;57.49
70229;BME280;57617;51.988;5.854;2023-03-04T03:06:09;102068.94;;;8.99;57.64
70229;BME280;57617;51.988;5.854;2023-03-04T03:08:34;102071.66;;;8.99;57.47
70229;BME280;57617;51.988;5.854;2023-03-04T03:10:59;102069.56;;;9.01;56.80
70229;BME280;57617;51.988;5.854;2023-03-04T03:13:24;102068.34;;;9.04;57.32
70229;BME280;57617;51.988;5.854;2023-03-04T03:15:50;102065.00;;;9.02;56.95
70229;BME280;57617;51.988;5.854;2023-03-04T03:18:15;102060.81;;;8.99;56.87
70229;BME280;57617;51.988;5.854;2023-03-04T03:20:40;102067.06;;;9.00;57.22
70229;BME280;57617;51.988;5.854;2023-03-04T03:23:06;102064.53;;;8.98;57.26
70229;BME280;57617;51.988;5.854;2023-03-04T03:25:32;102051.44;;;9.02;56.86
70229;BME280;57617;51.988;5.854;2023-03-04T03:27:57;102051.66;;;9.00;57.15
70229;BME280;57617;51.988;5.854;2023-03-04T03:30:23;102051.44;;;9.02;56.55
70229;BME280;57617;51.988;5.854;2023-03-04T03:32:48;102053.31;;;9.01;56.90
70229;BME280;57617;51.988;5.854;2023-03-04T03:35:14;102040.63;;;9.02;57.24
70229;BME280;57617;51.988;5.854;2023-03-04T03:37:39;102049.56;;;9.02;57.70
70229;BME280;57617;51.988;5.854;2023-03-04T03:40:05;102048.75;;;9.02;57.32
70229;BME280;57617;51.988;5.854;2023-03-04T03:42:30;102044.75;;;8.98;56.86
70229;BME280;57617;51.988;5.854;2023-03-04T03:44:55;102053.06;;;8.96;57.57
70229;BME280;57617;51.988;5.854;2023-03-04T03:47:21;102045.94;;;8.89;57.60
70229;BME280;57617;51.988;5.854;2023-03-04T03:49:46;102055.16;;;8.94;57.76
70229;BME280;57617;51.988;5.854;2023-03-04T03:52:12;102054.31;;;8.94;57.35
70229;BME280;57617;51.988;5.854;2023-03-04T03:54:37;102048.28;;;8.92;57.23
70229;BME280;57617;51.988;5.854;2023-03-04T03:57:03;102046.13;;;8.87;58.05
70229;BME280;57617;51.988;5.854;2023-03-04T03:59:28;102051.56;;;8.87;57.98
70229;BME280;57617;51.988;5.854;2023-03-04T04:01:53;102049.88;;;8.86;58.00
70229;BME280;57617;51.988;5.854;2023-03-04T04:04:18;102057.63;;;8.89;57.88
70229;BME280;57617;51.988;5.854;2023-03-04T04:06:44;102055.53;;;8.91;57.50
70229;BME280;57617;51.988;5.854;2023-03-04T04:09:09;102048.47;;;8.90;57.83
70229;BME280;57617;51.988;5.854;2023-03-04T04:11:35;102057.03;;;8.94;58.28
70229;BME280;57617;51.988;5.854;2023-03-04T04:14:01;102050.13;;;8.91;57.73
70229;BME280;57617;51.988;5.854;2023-03-04T04:16:26;102054.91;;;8.89;58.09
70229;BME280;57617;51.988;5.854;2023-03-04T04:18:51;102049.50;;;8.89;58.38
70229;BME280;57617;51.988;5.854;2023-03-04T04:21:17;102050.31;;;8.90;58.10
70229;BME280;57617;51.988;5.854;2023-03-04T04:23:42;102057.81;;;8.88;57.88
70229;BME280;57617;51.988;5.854;2023-03-04T04:26:07;102051.56;;;8.87;58.59
70229;BME280;57617;51.988;5.854;2023-03-04T04:28:33;102056.97;;;8.87;58.53
70229;BME280;57617;51.988;5.854;2023-03-04T04:30:58;102053.25;;;8.88;58.39
70229;BME280;57617;51.988;5.854;2023-03-04T04:33:23;102050.50;;;8.82;58.09
70229;BME280;57617;51.988;5.854;2023-03-04T04:35:48;102063.63;;;8.85;58.41
70229;BME280;57617;51.988;5.854;2023-03-04T04:38:14;102046.94;;;8.81;58.34
70229;BME280;57617;51.988;5.854;2023-03-04T04:40:39;102053.25;;;8.88;57.85
70229;BME280;57617;51.988;5.854;2023-03-04T04:43:04;102052.22;;;8.89;58.04
70229;BME280;57617;51.988;5.854;2023-03-04T04:45:31;102044.03;;;8.83;58.36
70229;BME280;57617;51.988;5.854;2023-03-04T04:47:56;102063.06;;;8.89;57.98
70229;BME280;57617;51.988;5.854;2023-03-04T04:50:23;102059.69;;;8.87;58.17
70229;BME280;57617;51.988;5.854;2023-03-04T04:52:48;102059.50;;;8.89;58.69
70229;BME280;57617;51.988;5.854;2023-03-04T04:55:14;102058.25;;;8.91;58.10
70229;BME280;57617;51.988;5.854;2023-03-04T04:57:39;102061.81;;;8.92;58.02
70229;BME280;57617;51.988;5.854;2023-03-04T05:00:05;102056.19;;;8.93;58.28
70229;BME280;57617;51.988;5.854;2023-03-04T05:02:31;102063.28;;;8.94;58.49
70229;BME280;57617;51.988;5.854;2023-03-04T05:05:03;102061.63;;;8.93;58.40
70229;BME280;57617;51.988;5.854;2023-03-04T05:07:29;102057.03;;;8.94;58.84
70229;BME280;57617;51.988;5.854;2023-03-04T05:09:54;102063.88;;;8.90;58.92
70229;BME280;57617;51.988;5.854;2023-03-04T05:12:19;102062.38;;;8.87;58.52
70229;BME280;57617;51.988;5.854;2023-03-04T05:14:45;102054.69;;;8.84;58.95
70229;BME280;57617;51.988;5.854;2023-03-04T05:17:10;102055.25;;;8.80;58.62
70229;BME280;57617;51.988;5.854;2023-03-04T05:19:35;102060.91;;;8.78;58.49
70229;BME280;57617;51.988;5.854;2023-03-04T05:22:01;102052.13;;;8.76;59.13
70229;BME280;57617;51.988;5.854;2023-03-04T05:24:26;102059.84;;;8.79;59.24
70229;BME280;57617;51.988;5.854;2023-03-04T05:26:51;102055.25;;;8.80;58.65
70229;BME280;57617;51.988;5.854;2023-03-04T05:29:16;102061.53;;;8.80;58.39
70229;BME280;57617;51.988;5.854;2023-03-04T05:31:43;102064.00;;;8.75;58.35
70229;BME280;57617;51.988;5.854;2023-03-04T05:34:08;102068.38;;;8.76;59.00
70229;BME280;57617;51.988;5.854;2023-03-04T05:36:33;102066.09;;;8.80;58.95
70229;BME280;57617;51.988;5.854;2023-03-04T05:38:58;102062.38;;;8.81;58.61
70229;BME280;57617;51.988;5.854;2023-03-04T05:41:24;102064.63;;;8.77;59.67
70229;BME280;57617;51.988;5.854;2023-03-04T05:43:50;102056.50;;;8.77;59.02
70229;BME280;57617;51.988;5.854;2023-03-04T05:46:16;102062.13;;;8.76;59.05
70229;BME280;57617;51.988;5.854;2023-03-04T05:48:42;102065.47;;;8.78;58.85
70229;BME280;57617;51.988;5.854;2023-03-04T05:51:08;102066.50;;;8.77;59.27
70229;BME280;57617;51.988;5.854;2023-03-04T05:53:34;102067.31;;;8.77;59.09
70229;BME280;57617;51.988;5.854;2023-03-04T05:56:06;102074.81;;;8.75;60.51
70229;BME280;57617;51.988;5.854;2023-03-04T05:58:31;102070.66;;;8.73;59.63
70229;BME280;57617;51.988;5.854;2023-03-04T06:00:59;102070.03;;;8.77;60.23
70229;BME280;57617;51.988;5.854;2023-03-04T06:03:24;102068.38;;;8.76;59.71
70229;BME280;57617;51.988;5.854;2023-03-04T06:05:49;102070.88;;;8.78;59.76
70229;BME280;57617;51.988;5.854;2023-03-04T06:08:15;102076.75;;;8.81;59.78
70229;BME280;57617;51.988;5.854;2023-03-04T06:10:40;102062.16;;;8.82;60.19
70229;BME280;57617;51.988;5.854;2023-03-04T06:13:07;102066.56;;;8.83;59.66
70229;BME280;57617;51.988;5.854;2023-03-04T06:15:32;102067.78;;;8.81;59.95
70229;BME280;57617;51.988;5.854;2023-03-04T06:17:57;102069.47;;;8.82;60.47
70229;BME280;57617;51.988;5.854;2023-03-04T06:20:23;102056.50;;;8.77;59.96
70229;BME280;57617;51.988;5.854;2023-03-04T06:22:48;102071.50;;;8.80;59.77
70229;BME280;57617;51.988;5.854;2023-03-04T06:25:14;102074.88;;;8.82;60.14
70229;BME280;57617;51.988;5.854;2023-03-04T06:27:40;102079.44;;;8.81;59.78
70229;BME280;57617;51.988;5.854;2023-03-04T06:30:06;102078.63;;;8.81;60.09
70229;BME280;57617;51.988;5.854;2023-03-04T06:32:31;102077.59;;;8.82;60.43
70229;BME280;57617;51.988;5.854;2023-03-04T06:34:57;102080.28;;;8.82;60.43
70229;BME280;57617;51.988;5.854;2023-03-04T06:37:22;102065.28;;;8.79;59.99
70229;BME280;57617;51.988;5.854;2023-03-04T06:39:47;102079.06;;;8.84;60.54
70229;BME280;57617;51.988;5.854;2023-03-04T06:42:13;102071.50;;;8.80;60.42
70229;BME280;57617;51.988;5.854;2023-03-04T06:44:38;102078.22;;;8.84;60.13
70229;BME280;57617;51.988;5.854;2023-03-04T06:47:04;102073.66;;;8.84;59.88
70229;BME280;57617;51.988;5.854;2023-03-04T06:49:29;102077.78;;;8.80;60.31
70229;BME280;57617;51.988;5.854;2023-03-04T06:51:54;102079.88;;;8.78;60.88
70229;BME280;57617;51.988;5.854;2023-03-04T06:54:20;102078.81;;;8.79;60.72
70229;BME280;57617;51.988;5.854;2023-03-04T06:56:45;102077.78;;;8.80;60.17
70229;BME280;57617;51.988;5.854;2023-03-04T06:59:10;102083.00;;;8.82;60.21
70229;BME280;57617;51.988;5.854;2023-03-04T07:01:36;102083.63;;;8.84;60.41
70229;BME280;57617;51.988;5.854;2023-03-04T07:04:02;102082.41;;;8.86;60.46
70229;BME280;57617;51.988;5.854;2023-03-04T07:06:28;102090.53;;;8.86;60.40
70229;BME280;57617;51.988;5.854;2023-03-04T07:08:54;102089.72;;;8.86;60.74
70229;BME280;57617;51.988;5.854;2023-03-04T07:11:20;102087.63;;;8.88;60.38
70229;BME280;57617;51.988;5.854;2023-03-04T07:13:46;102087.81;;;8.86;60.44
70229;BME280;57617;51.988;5.854;2023-03-04T07:16:14;102085.09;;;8.86;60.70
70229;BME280;57617;51.988;5.854;2023-03-04T07:18:40;102084.28;;;8.86;60.37
70229;BME280;57617;51.988;5.854;2023-03-04T07:21:06;102086.78;;;8.87;61.29
70229;BME280;57617;51.988;5.854;2023-03-04T07:23:32;102094.53;;;8.90;60.45
70229;BME280;57617;51.988;5.854;2023-03-04T07:25:58;102095.81;;;8.94;61.11
70229;BME280;57617;51.988;5.854;2023-03-04T07:28:23;102089.78;;;8.99;61.28
70229;BME280;57617;51.988;5.854;2023-03-04T07:30:48;102089.59;;;9.00;61.57
70229;BME280;57617;51.988;5.854;2023-03-04T07:33:14;102094.59;;;9.03;60.68
70229;BME280;57617;51.988;5.854;2023-03-04T07:35:39;102099.19;;;9.03;61.19
70229;BME280;57617;51.988;5.854;2023-03-04T07:38:06;102093.34;;;8.99;61.14
70229;BME280;57617;51.988;5.854;2023-03-04T07:40:31;102099.56;;;9.00;61.50
70229;BME280;57617;51.988;5.854;2023-03-04T07:42:56;102095.00;;;9.00;61.19
70229;BME280;57617;51.988;5.854;2023-03-04T07:45:23;102092.91;;;8.96;61.63
70229;BME280;57617;51.988;5.854;2023-03-04T07:47:49;102098.16;;;9.04;62.08
70229;BME280;57617;51.988;5.854;2023-03-04T07:50:14;102096.06;;;9.06;61.27
70229;BME280;57617;51.988;5.854;2023-03-04T07:52:41;102091.09;;;9.09;62.25
70229;BME280;57617;51.988;5.854;2023-03-04T07:55:08;102091.34;;;9.14;61.94
70229;BME280;57617;51.988;5.854;2023-03-04T07:57:33;102097.38;;;9.16;62.18
70229;BME280;57617;51.988;5.854;2023-03-04T07:59:59;102100.53;;;9.20;61.99
70229;BME280;57617;51.988;5.854;2023-03-04T08:02:24;102090.06;;;9.10;62.64
70229;BME280;57617;51.988;5.854;2023-03-04T08:04:50;102103.44;;;9.18;62.60
70229;BME280;57617;51.988;5.854;2023-03-04T08:07:15;102103.44;;;9.18;62.77
70229;BME280;57617;51.988;5.854;2023-03-04T08:09:41;102107.44;;;9.22;62.37
70229;BME280;57617;51.988;5.854;2023-03-04T08:12:06;102101.41;;;9.27;62.10
70229;BME280;57617;51.988;5.854;2023-03-04T08:14:31;102107.28;;;9.30;62.14
70229;BME280;57617;51.988;5.854;2023-03-04T08:16:58;102108.09;;;9.31;62.85
70229;BME280;57617;51.988;5.854;2023-03-04T08:19:23;102104.56;;;9.30;62.63
70229;BME280;57617;51.988;5.854;2023-03-04T08:21:49;102111.25;;;9.34;62.36
70229;BME280;57617;51.988;5.854;2023-03-04T08:24:14;102112.31;;;9.40;63.04
70229;BME280;57617;51.988;5.854;2023-03-04T08:26:46;102111.06;;;9.42;62.64
70229;BME280;57617;51.988;5.854;2023-03-04T08:29:14;102113.16;;;9.47;62.61
70229;BME280;57617;51.988;5.854;2023-03-04T08:31:41;102105.03;;;9.47;62.78
70229;BME280;57617;51.988;5.854;2023-03-04T08:34:07;102113.22;;;9.53;62.79
70229;BME280;57617;51.988;5.854;2023-03-04T08:36:34;102114.50;;;9.57;62.82
70229;BME280;57617;51.988;5.854;2023-03-04T08:39:00;102114.69;;;9.56;62.71
70229;BME280;57617;51.988;5.854;2023-03-04T08:41:25;102107.19;;;9.58;62.39
70229;BME280;57617;51.988;5.854;2023-03-04T08:43:51;102111.38;;;9.67;62.44
70229;BME280;57617;51.988;5.854;2023-03-04T08:46:17;102108.69;;;9.73;62.35
70229;BME280;57617;51.988;5.854;2023-03-04T08:48:42;102102.22;;;9.74;62.16
70229;BME280;57617;51.988;5.854;2023-03-04T08:51:09;102107.06;;;9.79;62.36
70229;BME280;57617;51.988;5.854;2023-03-04T08:53:36;102111.84;;;9.77;62.52
70229;BME280;57617;51.988;5.854;2023-03-04T08:56:02;102106.63;;;9.75;62.71
70229;BME280;57617;51.988;5.854;2023-03-04T08:58:27;102111.00;;;9.83;63.50
70229;BME280;57617;51.988;5.854;2023-03-04T09:00:53;102113.97;;;9.81;63.13
70229;BME280;57617;51.988;5.854;2023-03-04T09:03:18;102113.97;;;9.81;63.54
70229;BME280;57617;51.988;5.854;2023-03-04T09:05:45;102118.13;;;9.77;63.61
70229;BME280;57617;51.988;5.854;2023-03-04T09:08:10;102116.25;;;9.78;63.58
70229;BME280;57617;51.988;5.854;2023-03-04T09:10:36;102115.78;;;9.74;63.87
70229;BME280;57617;51.988;5.854;2023-03-04T09:13:01;102114.31;;;9.72;64.12
70229;BME280;57617;51.988;5.854;2023-03-04T09:15:27;102117.66;;;9.67;64.00
70229;BME280;57617;51.988;5.854;2023-03-04T09:17:52;102108.03;;;9.65;64.18
70229;BME280;57617;51.988;5.854;2023-03-04T09:20:17;102112.00;;;9.62;64.47
70229;BME280;57617;51.988;5.854;2023-03-04T09:22:45;102105.34;;;9.65;64.22
70229;BME280;57617;51.988;5.854;2023-03-04T09:25:12;102097.81;;;9.67;64.52
70229;BME280;57617;51.988;5.854;2023-03-04T09:27:39;102098.91;;;9.72;64.66
70229;BME280;57617;51.988;5.854;2023-03-04T09:30:05;102106.41;;;9.77;64.57
70229;BME280;57617;51.988;5.854;2023-03-04T09:32:30;102102.69;;;9.78;64.71
70229;BME280;57617;51.988;5.854;2023-03-04T09:34:55;102104.94;;;9.74;64.45
70229;BME280;57617;51.988;5.854;2023-03-04T09:37:21;102100.34;;;9.68;64.65
70229;BME280;57617;51.988;5.854;2023-03-04T09:39:46;102103.00;;;9.62;65.37
70229;BME280;57617;51.988;5.854;2023-03-04T09:42:26;102102.59;;;9.58;66.39
70229;BME280;57617;51.988;5.854;2023-03-04T09:44:53;102100.06;;;9.57;65.85
70229;BME280;57617;51.988;5.854;2023-03-04T09:47:19;102103.63;;;9.57;65.94
70229;BME280;57617;51.988;5.854;2023-03-04T09:49:55;102103.47;;;9.65;67.35
70229;BME280;57617;51.988;5.854;2023-03-04T09:55:11;102094.34;;;9.86;68.23
70229;BME280;57617;51.988;5.854;2023-03-04T10:03:04;102082.28;;;10.01;67.05
70229;BME280;57617;51.988;5.854;2023-03-04T10:05:31;102086.06;;;10.07;66.02
70229;BME280;57617;51.988;5.854;2023-03-04T10:08:04;102077.09;;;10.06;66.20
70229;BME280;57617;51.988;5.854;2023-03-04T10:10:37;102073.56;;;10.12;66.83
70229;BME280;57617;51.988;5.854;2023-03-04T10:13:05;102079.81;;;10.19;65.97
70229;BME280;57617;51.988;5.854;2023-03-04T10:15:39;102073.78;;;10.30;66.03
70229;BME280;57617;51.988;5.854;2023-03-04T10:19:10;102064.78;;;10.36;65.85
70229;BME280;57617;51.988;5.854;2023-03-04T10:23:45;102071.06;;;10.30;65.46
70229;BME280;57617;51.988;5.854;2023-03-04T10:26:14;102070.84;;;10.25;65.82
70229;BME280;57617;51.988;5.854;2023-03-04T10:28:40;102069.16;;;10.24;65.71
70229;BME280;57617;51.988;5.854;2023-03-04T10:31:16;102066.25;;;10.26;66.16
70229;BME280;57617;51.988;5.854;2023-03-04T10:33:44;102063.94;;;10.23;65.29
70229;BME280;57617;51.988;5.854;2023-03-04T10:37:01;102072.09;;;10.29;65.51
70229;BME280;57617;51.988;5.854;2023-03-04T10:39:16;102068.75;;;10.34;65.71
70229;BME280;57617;51.988;5.854;2023-03-04T10:41:44;102065.00;;;10.41;65.77
70229;BME280;57617;51.988;5.854;2023-03-04T10:46:39;102061.25;;;10.68;65.45
70229;BME280;57617;51.988;5.854;2023-03-04T10:49:05;102057.66;;;10.74;65.30
70229;BME280;57617;51.988;5.854;2023-03-04T10:51:31;102053.69;;;10.70;65.55
70229;BME280;57617;51.988;5.854;2023-03-04T10:54:06;102055.56;;;10.70;65.30
70229;BME280;57617;51.988;5.854;2023-03-04T10:56:38;102053.28;;;10.67;65.30
70229;BME280;57617;51.988;5.854;2023-03-04T11:01:54;102053.25;;;10.80;65.55
70229;BME280;57617;51.988;5.854;2023-03-04T11:04:23;102050.53;;;10.86;65.32
70229;BME280;57617;51.988;5.854;2023-03-04T11:06:50;102041.75;;;10.84;65.30
70229;BME280;57617;51.988;5.854;2023-03-04T11:09:27;102042.38;;;10.86;65.44
70229;BME280;57617;51.988;5.854;2023-03-04T11:12:00;102045.28;;;10.91;65.19
70229;BME280;57617;51.988;5.854;2023-03-04T11:14:46;102046.53;;;10.95;65.03
70229;BME280;57617;51.988;5.854;2023-03-04T11:17:37;102044.03;;;11.00;64.67
70229;BME280;57617;51.988;5.854;2023-03-04T11:20:31;102045.88;;;11.06;64.56
70229;BME280;57617;51.988;5.854;2023-03-04T11:23:02;102041.28;;;11.07;64.53
70229;BME280;57617;51.988;5.854;2023-03-04T11:25:32;102045.41;;;11.22;64.70
70229;BME280;57617;51.988;5.854;2023-03-04T11:28:23;102038.28;;;11.34;64.35
70229;BME280;57617;51.988;5.854;2023-03-04T11:30:54;102046.63;;;11.39;64.34
70229;BME280;57617;51.988;5.854;2023-03-04T11:33:27;102035.50;;;11.41;63.93
70229;BME280;57617;51.988;5.854;2023-03-04T11:36:25;102039.03;;;11.48;64.39
70229;BME280;57617;51.988;5.854;2023-03-04T11:38:54;102027.88;;;11.56;63.95
70229;BME280;57617;51.988;5.854;2023-03-04T11:41:29;102018.88;;;11.62;63.67
70229;BME280;57617;51.988;5.854;2023-03-04T11:43:57;102013.63;;;11.67;63.97
70229;BME280;57617;51.988;5.854;2023-03-04T11:46:43;102008.13;;;11.73;63.81
70229;BME280;57617;51.988;5.854;2023-03-04T11:52:08;101998.38;;;11.59;62.85
70229;BME280;57617;51.988;5.854;2023-03-04T11:58:04;102012.66;;;11.48;63.31
70229;BME280;57617;51.988;5.854;2023-03-04T12:09:22;102000.84;;;11.23;64.21
70229;BME280;57617;51.988;5.854;2023-03-04T12:20:22;101977.25;;;11.55;64.64
70229;BME280;57617;51.988;5.854;2023-03-04T12:25:41;101970.38;;;11.83;63.96
70229;BME280;57617;51.988;5.854;2023-03-04T12:28:25;101965.75;;;11.90;63.01
70229;BME280;57617;51.988;5.854;2023-03-04T12:34:07;101965.97;;;11.89;62.37
70229;BME280;57617;51.988;5.854;2023-03-04T12:44:43;101989.44;;;11.46;61.89
70229;BME280;57617;51.988;5.854;2023-03-04T12:47:30;101985.75;;;11.27;61.54
70229;BME280;57617;51.988;5.854;2023-03-04T12:50:22;101988.56;;;11.08;61.65
70229;BME280;57617;51.988;5.854;2023-03-04T12:55:43;101979.06;;;10.86;62.35
70229;BME280;57617;51.988;5.854;2023-03-04T12:58:15;101974.88;;;10.83;61.99
70229;BME280;57617;51.988;5.854;2023-03-04T13:08:33;101946.06;;;11.20;62.51
70229;BME280;57617;51.988;5.854;2023-03-04T13:11:31;101950.38;;;11.34;61.90
70229;BME280;57617;51.988;5.854;2023-03-04T13:14:02;101948.19;;;11.49;61.55
70229;BME280;57617;51.988;5.854;2023-03-04T13:16:31;101939.75;;;11.63;61.25
70229;BME280;57617;51.988;5.854;2023-03-04T13:18:58;101937.75;;;11.77;61.27
70229;BME280;57617;51.988;5.854;2023-03-04T13:21:26;101930.91;;;11.99;61.31
70229;BME280;57617;51.988;5.854;2023-03-04T13:23:53;101918.00;;;12.12;59.77
70229;BME280;57617;51.988;5.854;2023-03-04T13:26:30;101918.59;;;12.14;58.01
70229;BME280;57617;51.988;5.854;2023-03-04T13:29:19;101928.44;;;12.15;58.05
70229;BME280;57617;51.988;5.854;2023-03-04T13:34:48;101917.38;;;12.10;57.10
70229;BME280;57617;51.988;5.854;2023-03-04T13:37:34;101913.72;;;11.98;54.72
70229;BME280;57617;51.988;5.854;2023-03-04T13:42:44;101915.50;;;11.86;56.73
70229;BME280;57617;51.988;5.854;2023-03-04T13:45:36;101919.28;;;11.85;55.04
70229;BME280;57617;51.988;5.854;2023-03-04T13:48:07;101909.91;;;11.81;56.15
70229;BME280;57617;51.988;5.854;2023-03-04T13:50:48;101913.50;;;11.75;56.45
70229;BME280;57617;51.988;5.854;2023-03-04T13:53:32;101917.38;;;11.61;54.71
70229;BME280;57617;51.988;5.854;2023-03-04T13:58:37;101928.28;;;11.55;56.59
70229;BME280;57617;51.988;5.854;2023-03-04T14:01:04;101922.88;;;11.48;55.30
70229;BME280;57617;51.988;5.854;2023-03-04T14:03:30;101924.59;;;11.43;55.98
70229;BME280;57617;51.988;5.854;2023-03-04T14:08:37;101918.94;;;11.44;56.57
70229;BME280;57617;51.988;5.854;2023-03-04T14:11:03;101921.25;;;11.41;55.75
70229;BME280;57617;51.988;5.854;2023-03-04T14:13:28;101929.03;;;11.31;55.55
70229;BME280;57617;51.988;5.854;2023-03-04T14:15:58;101922.16;;;11.28;54.86
70229;BME280;57617;51.988;5.854;2023-03-04T14:18:23;101912.53;;;11.26;55.89
70229;BME280;57617;51.988;5.854;2023-03-04T14:20:50;101917.38;;;11.24;56.10